Time;durP1;ratioP1;P1;durP2;ratioP2;P2;SDS_P1;SDS_P2;PMS_P1;PMS_P2;Temp;Humidity;BMP_temperature;BMP_pressure;BME280_temperature;BME280_humidity;BME280_pressure;Samples;Min_cycle;Max_cycle;Signal;HPM_P1;HPM_P2
2022/06/25 00:01:40;;;;;;;8.40;3.90;;;19.10;99.90;;;;;;5007392;28;20455;-73
2022/06/25 00:05:27;;;;;;;5.03;4.27;;;19.10;99.90;;;;;;5015656;28;20597;-74
2022/06/25 00:06:56;;;;;;;6.50;4.03;;;19.20;99.90;;;;;;5014075;28;20473;-73
2022/06/25 00:09:23;;;;;;;5.90;5.00;;;19.10;99.90;;;;;;5019681;28;21229;-73
2022/06/25 00:14:34;;;;;;;5.20;4.70;;;18.90;99.90;;;;;;5023037;28;20552;-73
2022/06/25 00:17:00;;;;;;;4.90;3.93;;;18.80;99.90;;;;;;5015534;28;20475;-72
2022/06/25 00:19:27;;;;;;;5.03;4.27;;;18.90;99.90;;;;;;5017427;28;20461;-74
2022/06/25 00:21:56;;;;;;;6.70;4.50;;;18.90;99.90;;;;;;5008679;28;20852;-74
2022/06/25 00:24:23;;;;;;;4.50;4.07;;;18.90;99.90;;;;;;5009193;28;20471;-74
2022/06/25 00:26:50;;;;;;;4.50;3.70;;;18.90;99.90;;;;;;5012686;28;20483;-73
2022/06/25 00:29:17;;;;;;;5.53;3.97;;;18.90;99.90;;;;;;5010143;28;20457;-73
2022/06/25 00:31:44;;;;;;;5.43;4.30;;;18.80;99.90;;;;;;5004039;28;20568;-74
2022/06/25 00:34:11;;;;;;;5.10;4.57;;;18.80;99.90;;;;;;5018068;28;20621;-73
2022/06/25 00:36:38;;;;;;;4.80;4.30;;;18.70;99.90;;;;;;5013663;28;20467;-73
2022/06/25 00:39:06;;;;;;;4.60;3.67;;;18.80;99.90;;;;;;5015471;28;20465;-72
2022/06/25 00:41:33;;;;;;;4.23;3.40;;;18.80;99.90;;;;;;5006511;28;20480;-73
2022/06/25 00:44:06;;;;;;;4.03;3.17;;;18.70;99.90;;;;;;5000973;28;20469;-73
2022/06/25 00:46:32;;;;;;;8.30;3.13;;;18.70;99.90;;;;;;5005857;28;20487;-72
2022/06/25 00:52:24;;;;;;;4.87;3.60;;;18.70;99.90;;;;;;5018664;28;20452;-72
2022/06/25 00:54:54;;;;;;;4.93;3.87;;;18.60;99.90;;;;;;5022688;28;20506;-72
2022/06/25 00:57:24;;;;;;;13.20;4.40;;;18.60;99.90;;;;;;5016421;28;20974;-72
2022/06/25 00:59:53;;;;;;;4.50;3.33;;;18.50;99.90;;;;;;5014465;28;20452;-74
2022/06/25 01:02:21;;;;;;;5.23;3.77;;;18.60;99.90;;;;;;5011478;28;20562;-73
2022/06/25 01:04:48;;;;;;;6.80;4.67;;;18.60;99.90;;;;;;5016864;28;20484;-72
2022/06/25 01:07:15;;;;;;;5.07;3.67;;;18.70;99.90;;;;;;5015162;28;21098;-73
2022/06/25 01:09:42;;;;;;;3.53;3.23;;;18.70;99.90;;;;;;5017979;28;20547;-72
2022/06/25 01:12:11;;;;;;;4.83;3.20;;;18.70;99.90;;;;;;5009433;28;20497;-72
2022/06/25 01:14:38;;;;;;;4.43;4.03;;;18.70;99.90;;;;;;5015157;28;20460;-73
2022/06/25 01:17:06;;;;;;;4.73;3.40;;;18.60;99.90;;;;;;5019155;28;20455;-73
2022/06/25 01:19:34;;;;;;;5.40;4.00;;;18.60;99.90;;;;;;5010858;28;20980;-73
2022/06/25 01:22:04;;;;;;;2.90;2.60;;;18.60;99.90;;;;;;5008770;28;20476;-71
2022/06/25 01:24:31;;;;;;;6.63;2.73;;;18.50;99.90;;;;;;5021382;28;20471;-72
2022/06/25 01:26:58;;;;;;;3.00;2.80;;;18.50;99.90;;;;;;5015382;28;20477;-71
2022/06/25 01:29:26;;;;;;;3.60;3.30;;;18.60;99.90;;;;;;5010268;28;20551;-72
2022/06/25 01:31:53;;;;;;;8.53;2.70;;;18.60;99.90;;;;;;5022798;28;20479;-71
2022/06/25 01:34:20;;;;;;;7.77;4.17;;;18.60;99.90;;;;;;5016853;28;20957;-72
2022/06/25 01:36:47;;;;;;;3.23;2.90;;;18.60;99.90;;;;;;5013096;28;20456;-73
2022/06/25 01:39:15;;;;;;;2.33;2.03;;;18.60;99.90;;;;;;5022356;28;20847;-74
2022/06/25 01:41:42;;;;;;;3.00;2.70;;;18.70;99.90;;;;;;5009168;28;20472;-73
2022/06/25 01:44:09;;;;;;;3.03;2.20;;;18.70;99.90;;;;;;5016332;28;20468;-74
2022/06/25 01:46:35;;;;;;;2.23;1.93;;;18.80;99.90;;;;;;5019625;28;20485;-73
2022/06/25 01:49:03;;;;;;;3.20;2.20;;;18.80;99.90;;;;;;5020421;28;20465;-73
2022/06/25 01:51:29;;;;;;;2.27;2.07;;;18.80;99.90;;;;;;5012940;28;20897;-73
2022/06/25 01:53:56;;;;;;;2.30;2.10;;;18.90;99.90;;;;;;5027527;28;20638;-73
2022/06/25 01:56:25;;;;;;;5.87;2.70;;;18.80;99.90;;;;;;5026863;28;20461;-75
2022/06/25 01:58:51;;;;;;;2.97;2.23;;;18.80;99.90;;;;;;5020223;28;20453;-75
2022/06/25 02:01:18;;;;;;;3.47;2.27;;;18.80;99.90;;;;;;5023622;28;20534;-74
2022/06/25 02:03:45;;;;;;;2.40;2.20;;;18.70;99.90;;;;;;5013303;28;21691;-75
2022/06/25 02:06:12;;;;;;;4.27;2.40;;;18.80;99.90;;;;;;5018264;28;20498;-73
2022/06/25 02:08:39;;;;;;;5.57;2.97;;;18.70;99.90;;;;;;5018213;28;20486;-74
2022/06/25 02:11:08;;;;;;;3.03;2.47;;;18.90;99.90;;;;;;5024866;28;21685;-76
2022/06/25 02:13:36;;;;;;;2.47;1.97;;;18.90;99.90;;;;;;5028290;28;20476;-73
2022/06/25 02:16:05;;;;;;;8.27;2.67;;;18.90;99.90;;;;;;5020752;28;20461;-71
2022/06/25 02:18:32;;;;;;;5.83;2.47;;;18.80;99.90;;;;;;5025734;28;20452;-72
2022/06/25 02:20:59;;;;;;;2.90;2.20;;;18.80;99.90;;;;;;5014914;28;20457;-73
2022/06/25 02:23:25;;;;;;;7.10;2.60;;;18.90;99.90;;;;;;5029117;28;21028;-73
2022/06/25 02:25:52;;;;;;;2.63;2.43;;;18.90;99.90;;;;;;5020353;28;20933;-72
2022/06/25 02:28:19;;;;;;;4.77;3.53;;;18.90;99.90;;;;;;5016596;28;20585;-72
2022/06/25 02:30:47;;;;;;;3.90;2.70;;;18.80;99.90;;;;;;5015730;28;20532;-72
2022/06/25 02:33:15;;;;;;;2.97;2.60;;;18.70;99.90;;;;;;5017360;28;20808;-72
2022/06/25 02:35:45;;;;;;;3.20;2.63;;;18.80;99.90;;;;;;5018883;28;20437;-72
2022/06/25 02:38:13;;;;;;;3.63;2.70;;;18.70;99.90;;;;;;5014386;28;20491;-73
2022/06/25 02:40:40;;;;;;;3.20;2.60;;;18.70;99.90;;;;;;5014723;28;20460;-73
2022/06/25 02:43:08;;;;;;;4.37;2.90;;;18.80;99.90;;;;;;5014439;28;25683;-72
2022/06/25 02:45:34;;;;;;;4.17;2.90;;;18.70;99.90;;;;;;5020892;28;20427;-73
2022/06/25 02:48:03;;;;;;;4.10;2.50;;;18.70;99.90;;;;;;5023911;28;20455;-73
2022/06/25 02:50:29;;;;;;;6.00;3.13;;;18.70;99.90;;;;;;5018300;28;20468;-73
2022/06/25 02:52:56;;;;;;;11.33;2.50;;;18.60;99.90;;;;;;5017792;28;20480;-72
2022/06/25 02:58:54;;;;;;;4.07;2.20;;;18.70;99.90;;;;;;5012412;28;20573;-73
2022/06/25 03:00:56;;;;;;;3.40;3.10;;;18.60;99.90;;;;;;5016862;28;20452;-72
2022/06/25 03:03:24;;;;;;;2.60;2.40;;;18.70;99.90;;;;;;5012837;28;20487;-74
2022/06/25 03:05:52;;;;;;;3.57;2.30;;;18.60;99.90;;;;;;5012475;28;20557;-71
2022/06/25 03:08:18;;;;;;;3.60;2.83;;;18.60;99.90;;;;;;5020027;28;21081;-72
2022/06/25 03:10:46;;;;;;;15.30;3.30;;;18.60;99.90;;;;;;5012450;28;20475;-73
2022/06/25 03:13:12;;;;;;;9.73;3.13;;;18.50;99.90;;;;;;5017914;28;20487;-72
2022/06/25 03:15:41;;;;;;;6.00;2.83;;;18.40;99.90;;;;;;5012730;28;20492;-72
2022/06/25 03:18:09;;;;;;;3.13;2.83;;;18.40;99.90;;;;;;5005445;28;20453;-72
2022/06/25 03:20:37;;;;;;;3.13;2.90;;;18.30;99.90;;;;;;5008713;28;20461;-73
2022/06/25 03:23:04;;;;;;;2.80;2.60;;;18.30;99.90;;;;;;5020641;28;20472;-74
2022/06/25 03:25:31;;;;;;;3.57;3.27;;;18.30;99.90;;;;;;5019255;28;20909;-79
2022/06/25 03:27:58;;;;;;;4.23;2.77;;;18.30;99.90;;;;;;5017249;28;20484;-73
2022/06/25 03:30:25;;;;;;;3.87;3.00;;;18.30;99.90;;;;;;5012944;28;20492;-72
2022/06/25 03:32:52;;;;;;;3.83;3.00;;;18.40;99.90;;;;;;5017134;28;20496;-72
2022/06/25 03:35:19;;;;;;;3.60;2.53;;;18.40;99.90;;;;;;5022206;28;20969;-72
2022/06/25 03:37:47;;;;;;;3.67;3.30;;;18.40;99.90;;;;;;5020029;28;20464;-73
2022/06/25 03:40:14;;;;;;;4.50;3.77;;;18.40;99.90;;;;;;5015388;28;20529;-72
2022/06/25 03:42:41;;;;;;;4.13;3.13;;;18.30;99.90;;;;;;5013745;28;20479;-72
2022/06/25 03:45:09;;;;;;;7.77;3.00;;;18.30;99.90;;;;;;5017639;28;20465;-72
2022/06/25 03:47:36;;;;;;;3.47;3.00;;;18.30;99.90;;;;;;5014831;28;21047;-72
2022/06/25 03:50:06;;;;;;;5.63;4.23;;;18.30;99.90;;;;;;5016588;28;20474;-73
2022/06/25 03:52:33;;;;;;;3.20;2.70;;;18.40;99.90;;;;;;5008420;28;20476;-72
2022/06/25 03:55:01;;;;;;;4.50;3.20;;;18.40;99.90;;;;;;5013848;28;20510;-73
2022/06/25 03:57:28;;;;;;;3.27;2.77;;;18.50;99.90;;;;;;5020861;28;20439;-71
2022/06/25 03:59:55;;;;;;;4.10;3.60;;;18.40;99.90;;;;;;5011124;28;20551;-72
2022/06/25 04:02:22;;;;;;;4.23;3.77;;;18.40;99.90;;;;;;5017605;28;20489;-71
2022/06/25 04:04:49;;;;;;;3.87;2.90;;;18.50;99.90;;;;;;5026612;28;20579;-73
2022/06/25 04:07:15;;;;;;;5.20;2.80;;;18.60;99.90;;;;;;5019526;28;20580;-75
2022/06/25 04:09:42;;;;;;;3.87;3.57;;;18.60;99.90;;;;;;5026898;28;20550;-73
2022/06/25 04:12:11;;;;;;;3.07;2.77;;;18.60;99.90;;;;;;5026438;28;20452;-73
2022/06/25 04:14:39;;;;;;;3.20;2.87;;;18.60;99.90;;;;;;5017698;28;20904;-72
2022/06/25 04:17:06;;;;;;;4.47;3.40;;;18.70;99.90;;;;;;5018891;28;20464;-72
2022/06/25 04:19:39;;;;;;;3.10;2.50;;;18.60;99.90;;;;;;5015338;28;20519;-76
2022/06/25 04:22:07;;;;;;;3.63;3.00;;;18.70;99.90;;;;;;5014656;28;20504;-72
2022/06/25 04:24:34;;;;;;;4.07;3.67;;;18.70;99.90;;;;;;5015923;28;20728;-72
2022/06/25 04:27:00;;;;;;;3.83;3.47;;;18.80;99.90;;;;;;5022041;28;20463;-71
2022/06/25 04:29:28;;;;;;;3.57;2.90;;;18.80;99.90;;;;;;5019552;28;20504;-71
2022/06/25 04:31:55;;;;;;;3.50;2.93;;;18.80;99.90;;;;;;5013726;28;20473;-72
2022/06/25 04:34:22;;;;;;;3.17;2.87;;;18.90;99.90;;;;;;5017550;28;20467;-73
2022/06/25 04:36:49;;;;;;;4.77;3.53;;;18.90;99.90;;;;;;5014138;28;20468;-71
2022/06/25 04:39:16;;;;;;;5.97;2.87;;;18.90;99.90;;;;;;5007460;28;20453;-72
2022/06/25 04:41:43;;;;;;;3.87;2.73;;;18.90;99.90;;;;;;5020190;28;20924;-71
2022/06/25 04:44:10;;;;;;;7.37;2.80;;;18.90;99.90;;;;;;5019012;28;20469;-72
2022/06/25 04:46:38;;;;;;;3.50;2.87;;;19.00;99.90;;;;;;5004007;28;20474;-73
2022/06/25 04:49:05;;;;;;;5.30;2.50;;;19.10;99.90;;;;;;5013439;28;20479;-72
2022/06/25 04:51:32;;;;;;;5.50;3.10;;;19.10;99.90;;;;;;5018540;28;20485;-72
2022/06/25 04:53:59;;;;;;;3.60;2.93;;;19.20;99.90;;;;;;5013496;28;20435;-72
2022/06/25 04:56:27;;;;;;;3.73;2.97;;;19.40;99.90;;;;;;5012435;28;20989;-72
2022/06/25 04:58:55;;;;;;;4.40;3.20;;;19.60;99.90;;;;;;5009857;28;20457;-72
2022/06/25 05:01:22;;;;;;;2.53;2.33;;;19.60;99.90;;;;;;5011329;28;20500;-72
2022/06/25 05:03:50;;;;;;;2.20;2.00;;;19.60;99.90;;;;;;5009221;28;20467;-72
2022/06/25 05:06:17;;;;;;;10.00;8.30;;;19.80;99.90;;;;;;5014229;28;20466;-72
2022/06/25 05:08:44;;;;;;;13.67;3.30;;;19.90;99.90;;;;;;5009872;28;20512;-72
2022/06/25 05:11:11;;;;;;;3.20;3.00;;;20.00;99.90;;;;;;5002702;28;20469;-73
2022/06/25 05:13:38;;;;;;;3.60;2.70;;;20.00;99.90;;;;;;5007111;28;20471;-72
2022/06/25 05:16:05;;;;;;;3.20;2.90;;;20.20;99.90;;;;;;5008959;28;20467;-74
2022/06/25 05:18:33;;;;;;;4.30;2.80;;;20.30;99.90;;;;;;5004560;28;20814;-73
2022/06/25 05:21:02;;;;;;;4.33;2.97;;;20.40;99.90;;;;;;5015990;28;20522;-72
2022/06/25 05:23:29;;;;;;;13.10;2.90;;;20.50;99.90;;;;;;5016797;28;21099;-74
2022/06/25 05:25:56;;;;;;;2.27;2.07;;;20.90;99.90;;;;;;5021959;28;20467;-73
2022/06/25 05:28:23;;;;;;;3.33;2.60;;;21.10;99.90;;;;;;5013040;28;20689;-72
2022/06/25 05:30:50;;;;;;;2.70;2.30;;;21.10;99.90;;;;;;5026455;28;20471;-72
2022/06/25 05:33:17;;;;;;;2.30;1.93;;;21.10;99.90;;;;;;5028881;28;21023;-72
2022/06/25 05:35:44;;;;;;;2.20;1.80;;;21.30;99.90;;;;;;5019521;28;20500;-73
2022/06/25 05:38:12;;;;;;;3.47;2.40;;;21.90;99.90;;;;;;5014198;28;21181;-73
2022/06/25 05:40:39;;;;;;;4.43;2.23;;;22.50;99.90;;;;;;5021992;28;20464;-73
2022/06/25 05:43:06;;;;;;;3.20;1.80;;;22.70;99.90;;;;;;5018281;28;20488;-72
2022/06/25 05:45:33;;;;;;;2.10;1.90;;;23.40;99.90;;;;;;5031168;28;20971;-73
2022/06/25 05:48:00;;;;;;;1.60;1.40;;;23.80;99.90;;;;;;5027752;28;20568;-74
2022/06/25 05:50:27;;;;;;;2.70;2.07;;;24.10;99.90;;;;;;5025637;28;20471;-73
2022/06/25 05:52:55;;;;;;;2.30;1.77;;;24.20;99.90;;;;;;5027673;28;21064;-73
2022/06/25 05:55:23;;;;;;;2.47;2.27;;;24.40;99.90;;;;;;5029612;28;20469;-73
2022/06/25 05:57:51;;;;;;;2.13;1.97;;;24.30;99.90;;;;;;5019950;28;20559;-73
2022/06/25 06:00:18;;;;;;;2.23;1.80;;;23.90;99.90;;;;;;5026844;28;20990;-72
2022/06/25 06:02:45;;;;;;;2.40;1.80;;;24.00;99.90;;;;;;5028573;28;20555;-73
2022/06/25 06:05:12;;;;;;;2.23;2.03;;;23.70;99.90;;;;;;5028379;28;20464;-74
2022/06/25 06:07:39;;;;;;;2.63;1.80;;;23.90;99.90;;;;;;5031736;28;20556;-72
2022/06/25 06:10:07;;;;;;;4.07;2.07;;;24.20;99.90;;;;;;5030430;28;20472;-73
2022/06/25 06:12:36;;;;;;;4.60;1.70;;;24.60;99.90;;;;;;5029350;28;20472;-74
2022/06/25 06:15:03;;;;;;;2.43;2.23;;;24.80;99.90;;;;;;5028470;28;20515;-73
2022/06/25 06:17:30;;;;;;;2.53;2.33;;;25.20;99.90;;;;;;5028376;28;20488;-73
2022/06/25 06:19:57;;;;;;;3.40;2.30;;;24.90;99.90;;;;;;5030766;28;20822;-74
2022/06/25 06:22:24;;;;;;;3.40;2.23;;;24.80;99.90;;;;;;5019795;28;20488;-74
2022/06/25 06:24:51;;;;;;;3.50;1.90;;;25.30;99.90;;;;;;5026871;28;20535;-73
2022/06/25 06:27:18;;;;;;;2.07;1.80;;;25.30;99.90;;;;;;5029495;28;20460;-73
2022/06/25 06:29:46;;;;;;;5.30;2.20;;;25.30;99.90;;;;;;5029742;28;20510;-74
2022/06/25 06:32:13;;;;;;;2.80;2.40;;;25.40;99.90;;;;;;5027529;28;20516;-73
2022/06/25 06:34:39;;;;;;;3.20;2.00;;;25.70;99.90;;;;;;5024134;28;20465;-72
2022/06/25 06:37:06;;;;;;;3.43;1.83;;;25.90;99.90;;;;;;5031577;28;20817;-72
2022/06/25 06:39:33;;;;;;;3.17;1.80;;;25.90;99.90;;;;;;5023162;28;20548;-72
2022/06/25 06:42:00;;;;;;;2.10;1.90;;;25.80;99.90;;;;;;5018678;28;20489;-73
2022/06/25 06:44:27;;;;;;;1.70;1.60;;;26.30;99.90;;;;;;5022833;28;20467;-74
2022/06/25 06:46:55;;;;;;;2.77;1.77;;;26.30;99.90;;;;;;5019514;28;20463;-73
2022/06/25 06:49:22;;;;;;;6.03;2.83;;;26.20;99.90;;;;;;5026303;28;20488;-74
2022/06/25 06:51:49;;;;;;;3.07;2.30;;;26.10;99.90;;;;;;5027035;28;20485;-72
2022/06/25 06:54:16;;;;;;;1.73;1.60;;;26.20;99.90;;;;;;5030474;28;20539;-75
2022/06/25 06:56:43;;;;;;;8.10;2.53;;;26.40;99.90;;;;;;5022602;28;20487;-73
2022/06/25 06:59:16;;;;;;;6.40;3.10;;;26.10;99.90;;;;;;5016644;28;21011;-73
2022/06/25 07:01:43;;;;;;;3.77;1.93;;;26.20;99.90;;;;;;5006434;28;20485;-74
2022/06/25 07:04:11;;;;;;;2.50;2.07;;;25.80;99.90;;;;;;5013102;28;20505;-73
2022/06/25 07:06:38;;;;;;;2.60;1.87;;;25.80;99.90;;;;;;5016951;28;20971;-73
2022/06/25 07:09:05;;;;;;;3.07;2.77;;;26.20;99.90;;;;;;5014622;28;20483;-74
2022/06/25 07:11:31;;;;;;;4.97;1.90;;;26.60;99.90;;;;;;5016306;28;20489;-74
2022/06/25 07:14:00;;;;;;;6.80;1.97;;;26.70;99.90;;;;;;5028177;28;20497;-73
2022/06/25 07:16:28;;;;;;;1.90;1.80;;;27.00;99.90;;;;;;5023895;28;20465;-73
2022/06/25 07:18:56;;;;;;;3.80;1.67;;;27.40;99.90;;;;;;5009043;28;21206;-74
2022/06/25 07:21:25;;;;;;;4.30;2.00;;;27.90;99.90;;;;;;5002606;28;20492;-73
2022/06/25 07:23:52;;;;;;;2.13;1.70;;;28.00;99.90;;;;;;5010082;28;20538;-75
2022/06/25 07:26:20;;;;;;;2.23;1.80;;;28.10;99.90;;;;;;5021459;28;20563;-72
2022/06/25 07:28:47;;;;;;;2.90;1.30;;;28.60;99.90;;;;;;5008204;28;21170;-72
2022/06/25 07:31:14;;;;;;;8.70;2.00;;;28.70;99.90;;;;;;5023076;28;20552;-73
2022/06/25 07:33:41;;;;;;;2.03;1.70;;;29.00;99.90;;;;;;5024306;28;20468;-72
2022/06/25 07:36:08;;;;;;;1.70;1.50;;;28.50;99.90;;;;;;5028747;28;20909;-73
2022/06/25 07:38:37;;;;;;;4.20;1.90;;;28.60;99.90;;;;;;5020309;28;20592;-72
2022/06/25 07:41:04;;;;;;;2.50;1.93;;;28.50;99.90;;;;;;5022291;28;20540;-73
2022/06/25 07:43:31;;;;;;;6.83;1.83;;;28.50;99.90;;;;;;5017564;28;20453;-73
2022/06/25 07:45:59;;;;;;;3.40;2.00;;;28.90;99.90;;;;;;5024940;28;20575;-73
2022/06/25 07:48:26;;;;;;;6.40;2.40;;;28.70;99.90;;;;;;5013371;28;20484;-73
2022/06/25 07:53:39;;;;;;;2.53;1.73;;;29.00;99.90;;;;;;5027552;28;20528;-73
2022/06/25 07:56:06;;;;;;;1.83;1.63;;;28.60;99.90;;;;;;5010479;28;20463;-73
2022/06/25 07:58:34;;;;;;;1.97;1.47;;;28.20;99.90;;;;;;5004790;28;20527;-72
2022/06/25 08:01:00;;;;;;;2.60;1.70;;;28.70;99.90;;;;;;5011991;28;24498;-73
2022/06/25 08:03:27;;;;;;;2.80;1.50;;;28.40;99.90;;;;;;5010467;28;20845;-74
2022/06/25 08:05:54;;;;;;;4.33;1.73;;;28.10;99.90;;;;;;5015102;28;20464;-74
2022/06/25 08:08:24;;;;;;;28.07;20.20;;;28.20;99.90;;;;;;5015773;28;21820;-74
2022/06/25 08:10:52;;;;;;;2.97;2.27;;;28.70;99.90;;;;;;5018264;28;20970;-73
2022/06/25 08:13:19;;;;;;;2.10;1.87;;;29.50;99.90;;;;;;5007422;28;20493;-75
2022/06/25 08:15:46;;;;;;;5.87;1.80;;;29.90;99.90;;;;;;5016425;28;20465;-74
2022/06/25 08:18:13;;;;;;;2.67;2.17;;;30.10;99.90;;;;;;5013285;28;20550;-75
2022/06/25 08:20:40;;;;;;;7.43;2.30;;;29.80;99.90;;;;;;5005786;28;20456;-74
2022/06/25 08:23:07;;;;;;;1.83;1.60;;;29.70;99.90;;;;;;5025042;28;20473;-72
2022/06/25 08:25:34;;;;;;;3.53;1.67;;;30.20;99.90;;;;;;5028638;28;20966;-73
2022/06/25 08:28:03;;;;;;;5.50;2.00;;;30.40;99.90;;;;;;5027914;28;20452;-71
2022/06/25 08:30:31;;;;;;;3.00;1.33;;;30.00;99.90;;;;;;5021596;28;20920;-73
2022/06/25 08:32:58;;;;;;;2.27;1.20;;;30.40;99.90;;;;;;5021525;28;20472;-73
2022/06/25 08:35:25;;;;;;;2.60;1.47;;;30.60;99.90;;;;;;5029741;28;20897;-72
2022/06/25 08:37:51;;;;;;;5.33;2.17;;;31.00;99.90;;;;;;5021778;28;20460;-71
2022/06/25 08:40:19;;;;;;;9.83;1.60;;;30.80;99.90;;;;;;5025064;28;20538;-72
2022/06/25 08:42:48;;;;;;;1.90;1.60;;;31.10;99.90;;;;;;5029598;28;20471;-72
2022/06/25 08:45:17;;;;;;;2.13;1.83;;;30.60;99.90;;;;;;5030103;28;20471;-73
2022/06/25 08:47:45;;;;;;;3.70;1.90;;;30.70;98.50;;;;;;5034261;28;20456;-72
2022/06/25 08:50:15;;;;;;;2.70;1.80;;;30.90;99.20;;;;;;5025816;28;20571;-73
2022/06/25 08:52:46;;;;;;;2.23;1.60;;;31.60;98.10;;;;;;5033456;28;21472;-72
2022/06/25 08:55:21;;;;;;;3.80;1.67;;;31.50;95.70;;;;;;5030340;28;20449;-72
2022/06/25 08:57:48;;;;;;;1.57;1.40;;;30.90;96.60;;;;;;5021166;28;20538;-74
2022/06/25 09:00:20;;;;;;;9.43;1.83;;;29.80;98.40;;;;;;5005822;28;20445;-72
2022/06/25 09:02:47;;;;;;;1.77;1.63;;;29.20;98.80;;;;;;5012605;28;20536;-72
2022/06/25 09:05:13;;;;;;;1.53;1.20;;;29.60;98.80;;;;;;5015883;28;20551;-74
2022/06/25 09:07:53;;;;;;;2.00;1.80;;;30.30;98.50;;;;;;5011600;28;20518;-73
2022/06/25 09:10:22;;;;;;;4.40;1.40;;;31.30;97.80;;;;;;5009675;28;20535;-73
2022/06/25 09:12:53;;;;;;;1.80;1.40;;;32.20;94.60;;;;;;5007059;28;21828;-73
2022/06/25 09:15:24;;;;;;;2.13;1.80;;;32.50;93.50;;;;;;5007033;28;20475;-73
2022/06/25 09:17:52;;;;;;;2.23;1.77;;;31.90;93.10;;;;;;5006556;28;20497;-73
2022/06/25 09:20:19;;;;;;;3.13;1.67;;;31.70;93.20;;;;;;5010953;28;20910;-74
2022/06/25 09:22:58;;;;;;;1.83;1.30;;;31.80;92.50;;;;;;5016574;28;20480;-72
2022/06/25 09:25:26;;;;;;;2.93;2.43;;;31.70;93.10;;;;;;5017187;28;20522;-73
2022/06/25 09:27:54;;;;;;;2.23;1.53;;;31.10;93.40;;;;;;5016087;28;20463;-72
2022/06/25 09:30:23;;;;;;;2.10;1.37;;;30.20;94.30;;;;;;4998998;28;20587;-75
2022/06/25 09:32:54;;;;;;;1.90;1.30;;;30.90;93.50;;;;;;5008728;28;20852;-74
2022/06/25 09:35:35;;;;;;;2.40;1.90;;;30.70;92.70;;;;;;5011840;28;20647;-73
2022/06/25 09:38:04;;;;;;;3.33;1.90;;;30.20;93.40;;;;;;5016312;28;20463;-73
2022/06/25 09:40:31;;;;;;;2.33;2.13;;;30.20;93.80;;;;;;5012163;28;20451;-72
2022/06/25 09:42:59;;;;;;;5.90;1.70;;;29.60;93.70;;;;;;5014854;28;20481;-73
2022/06/25 09:45:27;;;;;;;1.93;1.40;;;29.10;95.40;;;;;;5030056;28;20479;-73
2022/06/25 09:47:56;;;;;;;2.23;1.53;;;29.00;94.00;;;;;;5027465;28;20461;-73
2022/06/25 09:50:23;;;;;;;3.30;1.30;;;28.90;95.40;;;;;;5020548;28;20978;-74
2022/06/25 09:52:52;;;;;;;1.50;1.30;;;28.80;94.20;;;;;;5033253;28;20551;-73
2022/06/25 09:55:21;;;;;;;3.93;2.00;;;28.90;95.00;;;;;;5024521;28;20530;-73
2022/06/25 09:57:48;;;;;;;2.80;2.00;;;28.80;95.50;;;;;;5028033;28;20456;-73
2022/06/25 10:00:16;;;;;;;1.90;1.40;;;29.50;95.10;;;;;;5030308;28;20463;-73
2022/06/25 10:02:48;;;;;;;3.10;2.13;;;30.10;94.80;;;;;;5031344;28;20515;-73
2022/06/25 10:05:17;;;;;;;1.80;1.50;;;30.30;94.00;;;;;;5031556;28;20471;-73
2022/06/25 10:08:00;;;;;;;1.80;1.40;;;31.00;92.50;;;;;;5031849;28;20474;-73
2022/06/25 10:10:31;;;;;;;6.27;2.10;;;30.30;91.10;;;;;;5026170;28;20495;-72
2022/06/25 10:12:58;;;;;;;1.93;1.73;;;30.70;92.40;;;;;;5026079;28;20471;-73
2022/06/25 10:15:25;;;;;;;2.00;1.80;;;31.50;91.20;;;;;;5029097;28;20548;-73
2022/06/25 10:17:54;;;;;;;4.77;2.43;;;31.90;90.80;;;;;;5027421;28;20466;-72
2022/06/25 10:20:22;;;;;;;1.97;1.50;;;32.10;88.70;;;;;;5022327;28;20541;-73
2022/06/25 10:22:51;;;;;;;3.40;3.20;;;32.40;87.70;;;;;;5025241;28;20556;-73
2022/06/25 10:25:20;;;;;;;1.43;1.33;;;32.60;89.50;;;;;;5026981;28;20560;-73
2022/06/25 10:27:50;;;;;;;1.50;1.00;;;32.70;89.00;;;;;;5026595;28;20463;-73
2022/06/25 10:30:36;;;;;;;1.70;1.30;;;34.00;84.10;;;;;;5025697;28;20611;-73
2022/06/25 10:33:05;;;;;;;2.13;1.13;;;34.40;77.70;;;;;;5027566;28;20857;-72
2022/06/25 10:35:34;;;;;;;1.60;1.50;;;33.90;75.20;;;;;;5028066;28;20548;-73
2022/06/25 10:38:04;;;;;;;1.60;1.30;;;33.70;75.40;;;;;;5027563;28;20464;-72
2022/06/25 10:40:32;;;;;;;3.67;1.40;;;33.40;72.60;;;;;;5024663;28;20448;-73
2022/06/25 10:43:17;;;;;;;3.63;1.53;;;33.50;73.80;;;;;;5032030;28;20521;-73
2022/06/25 10:45:46;;;;;;;3.53;1.90;;;32.70;75.30;;;;;;5024041;28;20472;-73
2022/06/25 10:48:15;;;;;;;1.77;1.47;;;32.40;77.10;;;;;;5032182;28;20454;-74
2022/06/25 10:50:49;;;;;;;2.23;1.80;;;32.40;79.70;;;;;;5023079;28;20527;-72
2022/06/25 10:53:18;;;;;;;1.87;1.50;;;33.00;77.70;;;;;;5024105;28;20488;-72
2022/06/25 10:56:15;;;;;;;2.13;1.43;;;33.40;76.20;;;;;;5028315;28;21010;-73
2022/06/25 10:58:43;;;;;;;3.20;2.00;;;34.20;74.30;;;;;;5016052;28;20983;-74
2022/06/25 11:01:20;;;;;;;1.70;1.43;;;34.60;71.80;;;;;;5030191;28;20987;-73
2022/06/25 11:03:52;;;;;;;2.60;1.43;;;35.50;69.30;;;;;;5026941;28;20910;-74
2022/06/25 11:06:22;;;;;;;2.10;1.90;;;34.90;69.90;;;;;;5020889;28;20466;-74
2022/06/25 11:08:49;;;;;;;6.10;1.83;;;33.10;73.00;;;;;;5024064;28;20467;-74
2022/06/25 11:11:25;;;;;;;2.57;1.60;;;33.00;71.90;;;;;;5025426;28;20498;-74
2022/06/25 11:13:52;;;;;;;2.07;1.67;;;33.80;73.20;;;;;;5020292;28;20954;-73
2022/06/25 11:16:19;;;;;;;4.60;2.07;;;34.20;71.80;;;;;;5025912;28;20460;-73
2022/06/25 11:18:49;;;;;;;3.30;1.90;;;34.40;72.40;;;;;;5028718;28;20534;-73
2022/06/25 11:21:29;;;;;;;1.83;1.40;;;34.80;70.40;;;;;;5028372;28;20553;-73
2022/06/25 11:24:12;;;;;;;2.23;1.37;;;34.40;71.00;;;;;;5024843;28;20450;-73
2022/06/25 11:29:25;;;;;;;2.40;1.50;;;35.50;68.00;;;;;;5024021;28;20451;-75
2022/06/25 11:31:53;;;;;;;1.63;1.33;;;35.40;70.20;;;;;;5030447;28;20923;-73
2022/06/25 11:34:23;;;;;;;1.40;1.13;;;35.80;65.80;;;;;;5030478;28;20569;-74
2022/06/25 11:37:02;;;;;;;1.83;1.63;;;35.70;62.50;;;;;;5028493;28;20943;-73
2022/06/25 11:39:29;;;;;;;3.93;1.60;;;34.80;65.50;;;;;;5028081;28;20460;-74
2022/06/25 11:41:57;;;;;;;1.90;1.40;;;34.70;66.50;;;;;;5025441;28;20989;-72
2022/06/25 11:44:24;;;;;;;1.73;1.40;;;35.10;66.10;;;;;;5015854;28;21236;-72
2022/06/25 11:46:52;;;;;;;5.77;1.93;;;35.20;65.50;;;;;;5006431;28;20909;-73
2022/06/25 11:49:20;;;;;;;1.80;1.37;;;35.60;64.70;;;;;;5012845;28;20459;-73
2022/06/25 11:51:51;;;;;;;2.00;1.40;;;35.40;63.80;;;;;;5028249;28;20982;-72
2022/06/25 11:54:22;;;;;;;1.60;1.37;;;34.50;64.40;;;;;;5023230;28;20490;-72
2022/06/25 11:56:55;;;;;;;2.83;1.30;;;33.40;66.50;;;;;;5026340;28;20457;-74
2022/06/25 11:59:26;;;;;;;2.03;1.47;;;33.60;68.10;;;;;;5028270;28;20831;-73
2022/06/25 12:01:53;;;;;;;1.60;1.50;;;33.20;67.50;;;;;;5025134;28;20473;-73
2022/06/25 12:04:20;;;;;;;2.30;1.23;;;33.40;67.40;;;;;;5015874;28;21503;-75
2022/06/25 12:06:49;;;;;;;3.40;1.80;;;34.10;64.50;;;;;;5026263;28;20537;-73
2022/06/25 12:09:18;;;;;;;2.07;1.30;;;34.70;64.20;;;;;;5028742;28;20935;-74
2022/06/25 12:11:52;;;;;;;2.00;1.80;;;34.50;64.50;;;;;;5003335;28;20489;-76
2022/06/25 12:14:23;;;;;;;2.50;1.63;;;33.30;66.60;;;;;;5012589;28;20469;-73
2022/06/25 12:16:51;;;;;;;3.53;1.90;;;32.00;68.80;;;;;;5017578;28;20469;-73
2022/06/25 12:19:18;;;;;;;2.00;1.80;;;31.40;71.10;;;;;;5018413;28;20872;-73
2022/06/25 12:21:45;;;;;;;4.80;1.50;;;31.20;72.30;;;;;;5014401;28;20473;-72
2022/06/25 12:24:15;;;;;;;1.40;1.30;;;32.00;70.10;;;;;;5018641;28;20567;-72
2022/06/25 12:26:52;;;;;;;2.27;1.50;;;31.80;71.20;;;;;;5013727;28;20537;-73
2022/06/25 12:29:20;;;;;;;2.60;1.47;;;31.50;71.70;;;;;;5003333;28;22084;-72
2022/06/25 12:31:54;;;;;;;1.83;1.60;;;31.40;73.60;;;;;;5017871;28;20571;-73
2022/06/25 12:34:21;;;;;;;1.87;1.70;;;31.80;72.40;;;;;;5020099;28;20544;-73
2022/06/25 12:36:50;;;;;;;2.33;1.90;;;31.50;73.30;;;;;;5009083;28;21818;-72
2022/06/25 12:39:36;;;;;;;1.63;1.50;;;31.20;72.30;;;;;;5022365;28;20465;-72
2022/06/25 12:42:08;;;;;;;2.67;1.50;;;30.70;74.20;;;;;;5015643;28;20480;-74
2022/06/25 12:44:37;;;;;;;2.03;1.73;;;30.40;75.10;;;;;;5016932;28;20973;-73
2022/06/25 12:47:07;;;;;;;3.20;1.70;;;30.60;75.80;;;;;;5027407;28;20457;-72
2022/06/25 12:49:46;;;;;;;1.90;1.50;;;30.70;76.40;;;;;;5015387;28;20993;-73
2022/06/25 12:52:16;;;;;;;2.43;1.57;;;30.80;75.50;;;;;;5012663;28;20484;-73
2022/06/25 12:54:48;;;;;;;2.17;1.67;;;30.50;75.90;;;;;;5006833;28;20845;-72
2022/06/25 12:57:27;;;;;;;1.70;1.40;;;30.30;76.00;;;;;;5019326;28;20468;-73
2022/06/25 12:59:54;;;;;;;2.53;1.43;;;29.80;78.10;;;;;;5010917;28;20472;-72
2022/06/25 13:02:22;;;;;;;1.70;1.40;;;29.30;80.70;;;;;;4998639;28;20482;-73
2022/06/25 13:04:49;;;;;;;2.63;1.90;;;29.30;79.30;;;;;;5013091;28;20528;-73
2022/06/25 13:07:17;;;;;;;2.67;1.57;;;29.20;81.80;;;;;;5003882;28;20587;-73